Time;durP1;ratioP1;P1;durP2;ratioP2;P2;SDS_P1;SDS_P2;PMS_P1;PMS_P2;Temp;Humidity;BMP_temperature;BMP_pressure;BME280_temperature;BME280_humidity;BME280_pressure;Samples;Min_cycle;Max_cycle;Signal;HPM_P1;HPM_P2
2023/03/29 00:00:59;;;;;;;4.43;1.42;;;;;;;2.83;59.06;97864.41;5011409;28;20050;-74
2023/03/29 00:03:29;;;;;;;4.85;1.30;;;;;;;2.85;59.43;97859.84;5011076;28;20097;-75
2023/03/29 00:06:01;;;;;;;2.83;0.90;;;;;;;2.82;59.59;97856.66;5011116;28;20053;-75
2023/03/29 00:08:30;;;;;;;3.83;1.25;;;;;;;2.82;59.35;97859.28;5012742;28;20454;-75
2023/03/29 00:10:58;;;;;;;5.63;1.83;;;;;;;2.84;59.61;97862.63;5011636;28;20253;-75
2023/03/29 00:13:26;;;;;;;5.68;1.60;;;;;;;2.86;59.21;97856.25;5003615;28;20497;-75
2023/03/29 00:15:54;;;;;;;3.42;1.30;;;;;;;2.94;59.42;97861.63;5010977;28;20038;-74
2023/03/29 00:18:22;;;;;;;5.70;1.45;;;;;;;2.90;59.25;97862.91;5008090;28;20041;-75
2023/03/29 00:20:55;;;;;;;2.45;1.02;;;;;;;2.85;59.66;97856.38;5006670;28;20042;-75
2023/03/29 00:23:23;;;;;;;2.72;1.10;;;;;;;2.91;60.12;97851.38;5013589;28;20527;-72
2023/03/29 00:25:53;;;;;;;2.35;1.15;;;;;;;2.98;59.46;97851.66;5014652;28;20046;-72
2023/03/29 00:28:20;;;;;;;3.42;1.33;;;;;;;2.88;60.15;97850.84;5013772;28;20345;-72
2023/03/29 00:30:49;;;;;;;4.35;1.30;;;;;;;2.89;60.29;97845.44;5014367;28;20034;-75
2023/03/29 00:33:19;;;;;;;4.10;1.75;;;;;;;2.87;60.29;97843.91;5015060;28;20401;-75
2023/03/29 00:35:48;;;;;;;5.35;1.77;;;;;;;2.92;60.88;97836.38;5013264;28;20042;-75
2023/03/29 00:38:18;;;;;;;4.38;1.50;;;;;;;2.90;60.37;97839.19;5014634;28;20044;-75
2023/03/29 00:40:46;;;;;;;2.97;1.50;;;;;;;2.84;60.53;97847.63;5013392;28;20045;-75
2023/03/29 00:43:15;;;;;;;4.55;1.73;;;;;;;2.72;61.20;97842.66;5014759;28;20046;-75
2023/03/29 00:45:43;;;;;;;4.55;2.15;;;;;;;2.78;61.23;97847.38;5014315;28;20091;-75
2023/03/29 00:48:12;;;;;;;5.90;1.63;;;;;;;2.76;61.58;97844.03;5014743;28;20038;-75
2023/03/29 00:50:44;;;;;;;5.50;1.45;;;;;;;2.83;61.31;97838.06;5001161;28;20096;-73
2023/03/29 00:53:15;;;;;;;3.42;1.75;;;;;;;2.85;61.30;97851.09;5014979;28;20049;-75
2023/03/29 00:55:48;;;;;;;3.33;1.73;;;;;;;2.86;61.07;97850.97;5016966;28;20758;-75
2023/03/29 00:58:18;;;;;;;4.03;1.55;;;;;;;2.91;60.66;97854.00;5029916;28;20034;-74
2023/03/29 01:00:50;;;;;;;2.42;1.52;;;;;;;3.07;59.67;97852.59;5039591;28;20060;-75
2023/03/29 01:03:23;;;;;;;3.35;1.58;;;;;;;3.02;60.23;97845.09;5038561;28;20033;-73
2023/03/29 01:05:55;;;;;;;4.32;1.50;;;;;;;3.00;59.87;97854.16;5037753;28;20077;-75
2023/03/29 01:08:26;;;;;;;6.22;1.67;;;;;;;2.97;60.40;97849.16;5035327;28;20037;-74
2023/03/29 01:10:58;;;;;;;4.85;1.73;;;;;;;2.92;60.28;97847.75;5013657;28;20046;-74
2023/03/29 01:13:27;;;;;;;;;;;;;;;2.84;60.27;97833.63;5001545;28;20046;-74
2023/03/29 01:15:56;;;;;;;1.77;1.30;;;;;;;2.89;60.24;97839.31;5012527;28;20412;-73
2023/03/29 01:18:24;;;;;;;4.50;1.48;;;;;;;2.85;60.93;97832.66;5012265;28;20054;-74
2023/03/29 01:21:04;;;;;;;4.00;1.50;;;;;;;2.86;60.65;97831.69;5013058;28;20053;-73
2023/03/29 01:23:45;;;;;;;3.53;1.65;;;;;;;2.90;60.77;97825.19;5016265;28;20052;-75
2023/03/29 01:26:20;;;;;;;3.88;1.42;;;;;;;2.92;60.59;97816.13;5011208;28;20105;-73
2023/03/29 01:28:52;;;;;;;6.03;1.73;;;;;;;2.89;60.43;97818.25;5008233;28;20494;-76
2023/03/29 01:31:23;;;;;;;3.05;1.48;;;;;;;2.93;60.32;97814.31;5014432;28;20053;-73
2023/03/29 01:33:53;;;;;;;3.30;1.48;;;;;;;2.95;60.49;97800.03;5013821;28;20049;-73
2023/03/29 01:36:25;;;;;;;3.88;1.83;;;;;;;2.88;60.59;97798.13;5014886;28;20046;-73
2023/03/29 01:38:55;;;;;;;2.30;1.15;;;;;;;2.88;60.69;97790.22;5015474;28;20045;-76
2023/03/29 01:41:28;;;;;;;4.00;1.42;;;;;;;2.86;61.04;97782.44;5013757;28;20029;-73
2023/03/29 01:43:59;;;;;;;4.30;1.38;;;;;;;2.81;61.24;97786.47;5009552;28;20046;-73
2023/03/29 01:46:31;;;;;;;2.05;1.35;;;;;;;2.81;61.57;97773.28;5009838;28;20030;-74
2023/03/29 01:49:02;;;;;;;4.50;2.40;;;;;;;2.82;61.37;97777.59;5011019;28;20472;-73
2023/03/29 01:51:34;;;;;;;2.40;1.20;;;;;;;2.80;61.60;97775.09;5005630;28;20041;-74
2023/03/29 01:54:06;;;;;;;3.75;1.75;;;;;;;2.84;61.58;97775.66;5012339;28;20497;-73
2023/03/29 01:56:36;;;;;;;4.70;1.50;;;;;;;2.88;61.49;97775.22;5011498;28;20077;-73
2023/03/29 01:59:08;;;;;;;2.13;1.50;;;;;;;2.92;61.69;97762.59;5012479;28;20100;-74
2023/03/29 02:01:41;;;;;;;5.53;2.17;;;;;;;2.97;61.53;97765.63;5013638;28;20445;-76
2023/03/29 02:04:11;;;;;;;1.77;1.58;;;;;;;3.04;61.62;97765.88;5013437;28;20088;-73
2023/03/29 02:06:40;;;;;;;2.72;1.30;;;;;;;3.08;61.38;97767.28;5009047;28;20513;-74
2023/03/29 02:09:08;;;;;;;3.55;1.48;;;;;;;3.09;62.29;97753.94;5010442;28;20046;-74
2023/03/29 02:11:37;;;;;;;2.95;1.65;;;;;;;3.16;62.61;97764.75;5024291;28;20049;-76
2023/03/29 02:14:06;;;;;;;2.92;1.40;;;;;;;3.12;62.78;97763.34;5013552;28;20379;-73
2023/03/29 02:16:35;;;;;;;1.52;1.13;;;;;;;3.12;63.90;97758.06;5013573;28;20049;-76
2023/03/29 02:19:03;;;;;;;1.77;1.45;;;;;;;3.10;64.59;97757.41;5013281;28;20453;-74
2023/03/29 02:21:34;;;;;;;3.88;1.48;;;;;;;3.10;65.34;97746.88;5013306;28;20494;-74
2023/03/29 02:24:05;;;;;;;1.90;1.10;;;;;;;3.07;66.17;97753.25;5012274;28;20046;-73
2023/03/29 02:26:33;;;;;;;2.72;1.70;;;;;;;3.03;66.78;97754.50;5011401;28;20092;-74
2023/03/29 02:29:01;;;;;;;2.65;1.52;;;;;;;3.03;66.64;97749.22;5011700;28;20061;-74
2023/03/29 02:31:35;;;;;;;3.30;1.80;;;;;;;2.93;66.69;97744.00;5011481;28;20046;-75
2023/03/29 02:34:07;;;;;;;5.10;1.90;;;;;;;3.01;67.08;97743.25;5008429;28;20050;-73
2023/03/29 02:36:37;;;;;;;;;;;;;;;3.11;67.44;97732.72;5011413;28;20046;-73
2023/03/29 02:39:06;;;;;;;4.80;1.90;;;;;;;3.05;68.38;97730.63;5011203;28;19921;-74
2023/03/29 02:41:36;;;;;;;2.78;1.88;;;;;;;3.12;68.54;97727.28;5004069;28;20050;-73
2023/03/29 02:44:06;;;;;;;5.95;2.22;;;;;;;3.20;68.49;97729.22;5011152;28;20076;-73
2023/03/29 02:46:36;;;;;;;3.60;1.42;;;;;;;3.14;68.98;97722.69;5008782;28;20038;-73
2023/03/29 02:49:05;;;;;;;3.97;1.63;;;;;;;3.17;69.80;97719.78;5011802;28;20073;-73
2023/03/29 02:51:35;;;;;;;4.60;2.53;;;;;;;3.20;70.65;97718.66;5013662;28;20134;-74
2023/03/29 02:54:07;;;;;;;4.43;2.53;;;;;;;3.17;72.21;97711.88;5015532;28;20109;-73
2023/03/29 02:56:42;;;;;;;3.55;1.98;;;;;;;3.16;72.70;97717.28;5004494;28;20042;-74
2023/03/29 02:59:10;;;;;;;4.55;2.42;;;;;;;3.15;73.43;97712.97;5012815;28;20058;-74
2023/03/29 03:01:41;;;;;;;5.32;2.25;;;;;;;3.15;73.75;97703.25;5015589;28;20042;-74
2023/03/29 03:04:09;;;;;;;4.80;2.40;;;;;;;3.06;75.21;97705.94;5018704;28;20555;-75
2023/03/29 03:06:38;;;;;;;2.88;1.40;;;;;;;2.98;76.90;97709.31;5016811;28;20048;-74
2023/03/29 03:09:05;;;;;;;5.72;3.10;;;;;;;2.91;77.64;97705.56;5022898;28;20042;-74
2023/03/29 03:11:36;;;;;;;4.20;3.08;;;;;;;2.89;78.30;97697.00;5014874;28;20053;-74
2023/03/29 03:14:04;;;;;;;5.70;3.10;;;;;;;2.83;79.44;97700.19;5013817;28;20038;-74
2023/03/29 03:16:32;;;;;;;3.70;2.95;;;;;;;2.83;79.42;97701.03;5010360;28;20125;-74
2023/03/29 03:19:01;;;;;;;5.20;3.00;;;;;;;2.77;80.79;97701.59;5010498;28;20104;-76
2023/03/29 03:21:28;;;;;;;2.55;2.13;;;;;;;2.83;80.70;97701.03;5007994;28;20050;-74
2023/03/29 03:23:56;;;;;;;6.75;2.80;;;;;;;2.85;80.65;97695.59;5010576;28;20454;-74
2023/03/29 03:26:28;;;;;;;4.28;3.00;;;;;;;2.77;81.60;97700.78;5008844;28;20444;-73
2023/03/29 03:28:57;;;;;;;3.00;2.67;;;;;;;2.76;82.02;97691.19;5009938;28;20571;-74
2023/03/29 03:31:47;;;;;;;;;;;;;;;2.80;82.09;97695.22;5010613;28;20041;-73
2023/03/29 03:34:38;;;;;;;5.72;3.30;;;;;;;2.85;81.89;97685.91;5011610;28;19926;-74
2023/03/29 03:37:06;;;;;;;2.67;2.45;;;;;;;2.81;82.40;97675.78;5011461;28;20052;-74
2023/03/29 03:39:34;;;;;;;5.28;2.88;;;;;;;2.87;81.87;97688.41;5010078;28;20049;-75
2023/03/29 03:42:03;;;;;;;2.20;2.00;;;;;;;2.87;81.20;97691.03;5010466;28;20084;-74
2023/03/29 03:44:39;;;;;;;2.45;1.85;;;;;;;2.76;81.42;97693.84;5010297;28;20050;-73
2023/03/29 03:47:20;;;;;;;3.25;2.83;;;;;;;2.73;81.01;97697.59;5009392;28;20480;-74
2023/03/29 03:49:50;;;;;;;3.33;2.92;;;;;;;2.76;80.29;97688.56;5010271;28;20070;-74
2023/03/29 03:52:19;;;;;;;3.13;2.40;;;;;;;2.71;79.76;97696.88;5010627;28;20038;-74
2023/03/29 03:54:48;;;;;;;3.17;2.05;;;;;;;2.68;79.47;97680.56;5010061;28;20070;-75
2023/03/29 03:57:36;;;;;;;3.00;1.80;;;;;;;2.71;79.25;97688.16;5013875;28;20048;-74
2023/03/29 04:00:17;;;;;;;4.10;2.75;;;;;;;2.66;79.65;97677.22;5014996;28;20057;-74
2023/03/29 04:02:50;;;;;;;2.50;2.30;;;;;;;2.63;79.09;97678.34;5009883;28;20058;-74
2023/03/29 04:05:19;;;;;;;4.80;2.58;;;;;;;2.69;78.99;97682.22;5013942;28;20061;-74
2023/03/29 04:07:47;;;;;;;4.50;2.20;;;;;;;2.72;78.83;97674.84;5010911;28;20037;-74
2023/03/29 04:10:33;;;;;;;3.53;2.50;;;;;;;2.66;78.65;97679.88;5011061;28;20103;-74
2023/03/29 04:13:10;;;;;;;1.88;1.40;;;;;;;2.63;79.53;97672.25;5014978;28;20046;-74
2023/03/29 04:15:59;;;;;;;3.15;2.20;;;;;;;2.66;79.37;97671.97;5012906;28;20042;-74
2023/03/29 04:18:28;;;;;;;4.07;2.15;;;;;;;2.64;79.71;97674.72;5009363;28;20126;-74
2023/03/29 04:21:00;;;;;;;2.95;2.35;;;;;;;2.57;79.77;97681.56;5015048;28;20045;-74
2023/03/29 04:23:30;;;;;;;5.45;2.65;;;;;;;2.63;79.61;97677.50;5013938;28;20048;-74
2023/03/29 04:25:58;;;;;;;6.32;2.88;;;;;;;2.67;79.77;97671.00;5009023;28;20061;-74
2023/03/29 04:28:43;;;;;;;6.18;2.58;;;;;;;2.67;79.69;97668.34;5009992;28;20053;-73
2023/03/29 04:31:15;;;;;;;3.28;2.58;;;;;;;2.66;79.96;97662.25;5013860;28;20052;-73
2023/03/29 04:34:07;;;;;;;2.55;2.00;;;;;;;2.59;80.98;97669.06;5014088;28;20056;-74
2023/03/29 04:36:36;;;;;;;6.50;2.65;;;;;;;2.57;81.33;97665.75;5014884;28;20037;-74
2023/03/29 04:39:08;;;;;;;3.08;2.38;;;;;;;2.50;81.94;97664.63;5013330;28;20308;-74
2023/03/29 04:41:36;;;;;;;4.55;2.90;;;;;;;2.44;82.47;97668.69;5014000;28;20096;-74
2023/03/29 04:44:16;;;;;;;6.93;3.58;;;;;;;2.47;82.87;97665.78;5015917;28;20038;-74
2023/03/29 04:46:44;;;;;;;6.05;3.03;;;;;;;2.47;83.56;97665.78;5013371;28;20066;-74
2023/03/29 04:49:31;;;;;;;2.78;2.03;;;;;;;2.47;83.57;97665.78;5007686;28;20060;-76
2023/03/29 04:52:00;;;;;;;8.00;3.33;;;;;;;2.45;84.57;97666.88;5014245;28;20052;-75
2023/03/29 04:54:30;;;;;;;4.38;2.95;;;;;;;2.48;84.38;97667.44;5006315;28;20494;-75
2023/03/29 04:57:18;;;;;;;5.65;3.03;;;;;;;2.50;84.50;97667.28;5012984;28;20081;-75
2023/03/29 04:59:55;;;;;;;3.85;2.83;;;;;;;2.50;84.58;97659.38;5014547;28;20144;-74
2023/03/29 05:02:42;;;;;;;5.22;3.55;;;;;;;2.53;85.20;97651.19;5008816;28;20081;-75
2023/03/29 05:05:11;;;;;;;6.10;3.08;;;;;;;2.55;85.15;97651.88;5010565;28;20572;-75
2023/03/29 05:07:41;;;;;;;4.75;3.28;;;;;;;2.60;84.80;97657.53;5013680;28;20172;-75
2023/03/29 05:10:10;;;;;;;5.40;3.78;;;;;;;2.62;85.34;97660.03;5013061;28;20038;-75
2023/03/29 05:12:40;;;;;;;7.85;4.05;;;;;;;2.62;85.08;97663.50;5029028;28;20042;-75
2023/03/29 05:15:09;;;;;;;6.50;3.42;;;;;;;2.63;85.09;97661.69;5013313;28;20065;-75
2023/03/29 05:17:37;;;;;;;7.55;4.15;;;;;;;2.60;85.36;97656.75;5012596;28;20056;-75
2023/03/29 05:20:10;;;;;;;;;;;;;;;2.60;85.37;97652.28;5010475;28;20049;-77
2023/03/29 05:22:39;;;;;;;5.10;3.78;;;;;;;2.60;85.42;97659.38;5013625;28;20418;-75
2023/03/29 05:25:12;;;;;;;3.22;1.92;;;;;;;2.61;85.14;97646.03;5013644;28;20397;-75
2023/03/29 05:27:41;;;;;;;7.28;3.72;;;;;;;2.60;85.92;97649.63;5013348;28;20390;-75
2023/03/29 05:30:11;;;;;;;5.72;2.50;;;;;;;2.54;85.74;97651.06;5013541;28;20042;-75
2023/03/29 05:33:04;;;;;;;5.22;3.85;;;;;;;2.44;86.77;97646.78;5012564;28;20416;-75
2023/03/29 05:35:34;;;;;;;3.83;2.85;;;;;;;2.43;87.33;97648.59;5002920;28;20045;-75
2023/03/29 05:38:05;;;;;;;4.22;3.15;;;;;;;2.48;86.57;97649.00;5013556;28;20073;-75
2023/03/29 05:40:34;;;;;;;3.95;3.22;;;;;;;2.47;86.84;97655.25;5012958;28;20049;-75
2023/03/29 05:43:29;;;;;;;4.88;3.72;;;;;;;2.48;87.07;97651.63;5006798;28;20620;-75
2023/03/29 05:45:57;;;;;;;4.88;3.90;;;;;;;2.52;86.97;97653.00;5007920;28;20216;-75
2023/03/29 05:48:26;;;;;;;7.18;4.78;;;;;;;2.60;86.70;97651.47;5012118;28;20057;-74
2023/03/29 05:50:55;;;;;;;11.85;4.03;;;;;;;2.48;87.31;97648.19;5012111;28;20464;-75
2023/03/29 05:53:24;;;;;;;7.32;4.10;;;;;;;2.45;87.25;97657.19;5009371;28;20052;-75
2023/03/29 05:55:53;;;;;;;5.65;4.65;;;;;;;2.44;87.50;97647.63;5008054;28;20050;-75
2023/03/29 05:58:25;;;;;;;6.95;4.15;;;;;;;2.47;87.54;97633.34;5004392;28;20038;-76
2023/03/29 06:00:53;;;;;;;7.43;4.50;;;;;;;2.49;87.06;97640.09;5012440;28;20068;-76
2023/03/29 06:03:41;;;;;;;5.63;3.38;;;;;;;2.55;86.82;97639.53;5008111;28;20045;-76
2023/03/29 06:06:09;;;;;;;4.25;2.90;;;;;;;2.58;86.98;97641.91;5006263;28;20517;-75
2023/03/29 06:08:37;;;;;;;7.47;4.50;;;;;;;2.60;86.25;97639.09;5012254;28;20088;-75
2023/03/29 06:11:16;;;;;;;7.53;4.05;;;;;;;2.61;86.81;97638.13;5005578;28;20054;-75
2023/03/29 06:14:06;;;;;;;5.38;4.63;;;;;;;2.71;86.56;97636.28;5013197;28;20046;-75
2023/03/29 06:16:39;;;;;;;5.55;3.30;;;;;;;2.65;86.40;97641.31;5011224;28;20050;-76
2023/03/29 06:19:09;;;;;;;5.45;3.33;;;;;;;2.66;86.58;97635.91;5010948;28;20045;-75
2023/03/29 06:21:38;;;;;;;5.20;4.10;;;;;;;2.69;86.48;97633.00;5011541;28;20092;-75
2023/03/29 06:24:07;;;;;;;6.63;3.92;;;;;;;2.77;86.74;97629.63;5011606;28;20066;-75
2023/03/29 06:26:42;;;;;;;6.93;4.15;;;;;;;2.83;86.93;97624.59;5006971;28;20046;-75
2023/03/29 06:29:10;;;;;;;5.53;4.43;;;;;;;2.79;85.96;97619.78;5009520;28;20050;-76
2023/03/29 06:31:39;;;;;;;6.32;3.72;;;;;;;2.79;86.17;97620.59;5011349;28;20049;-74
2023/03/29 06:34:12;;;;;;;5.95;4.00;;;;;;;2.83;86.33;97621.97;5011536;28;20089;-74
2023/03/29 06:37:00;;;;;;;2.30;2.10;;;;;;;2.87;85.76;97628.63;5010914;28;20045;-75
2023/03/29 06:39:27;;;;;;;5.85;3.42;;;;;;;2.89;85.69;97628.47;5019849;28;20546;-76
2023/03/29 06:42:22;;;;;;;5.45;4.20;;;;;;;2.95;85.69;97625.25;5010279;28;20057;-76
2023/03/29 06:45:15;;;;;;;6.80;4.45;;;;;;;3.06;85.13;97627.69;5007429;28;20053;-76
2023/03/29 06:47:47;;;;;;;6.88;3.80;;;;;;;3.00;84.98;97633.56;5004208;28;20501;-75
2023/03/29 06:50:16;;;;;;;8.32;4.32;;;;;;;3.00;85.02;97636.19;5009419;28;20064;-73
2023/03/29 06:52:58;;;;;;;5.85;4.57;;;;;;;3.09;84.59;97632.66;5011549;28;20046;-76
2023/03/29 06:55:26;;;;;;;5.05;3.33;;;;;;;3.10;84.28;97636.97;5006818;28;20038;-76
2023/03/29 06:57:56;;;;;;;5.82;3.63;;;;;;;3.03;84.89;97640.31;5011212;28;20060;-75
2023/03/29 07:00:29;;;;;;;7.18;4.70;;;;;;;3.08;84.63;97635.44;5006495;28;20049;-76
2023/03/29 07:03:12;;;;;;;6.53;3.58;;;;;;;3.05;84.71;97628.66;5008570;28;20050;-73
2023/03/29 07:05:40;;;;;;;5.55;5.00;;;;;;;3.12;84.55;97631.53;5008487;28;20440;-75
2023/03/29 07:08:14;;;;;;;6.35;3.70;;;;;;;3.22;84.83;97622.56;5010979;28;20513;-75
2023/03/29 07:10:52;;;;;;;4.38;3.25;;;;;;;3.24;84.49;97620.63;5007238;28;20069;-74
2023/03/29 07:13:41;;;;;;;5.22;2.80;;;;;;;3.25;83.87;97619.66;5005387;28;20416;-74
2023/03/29 07:16:11;;;;;;;8.57;4.60;;;;;;;3.29;84.04;97626.31;5011635;28;20034;-74
2023/03/29 07:18:47;;;;;;;8.25;5.20;;;;;;;3.41;83.96;97632.19;5008380;28;20505;-74
2023/03/29 07:21:35;;;;;;;7.55;3.97;;;;;;;3.43;83.41;97629.38;5000609;28;20136;-76
2023/03/29 07:24:05;;;;;;;5.88;4.60;;;;;;;3.52;84.17;97634.63;5009620;28;20065;-74
2023/03/29 07:26:35;;;;;;;7.25;4.85;;;;;;;3.58;83.42;97630.56;5011075;28;20049;-74
2023/03/29 07:29:05;;;;;;;7.32;5.15;;;;;;;3.60;83.10;97629.44;5012194;28;20532;-74
2023/03/29 07:31:34;;;;;;;5.95;4.45;;;;;;;3.72;83.32;97624.75;5011911;28;20066;-74
2023/03/29 07:34:23;;;;;;;7.55;2.92;;;;;;;3.77;82.84;97619.84;5013797;28;20041;-74
2023/03/29 07:36:51;;;;;;;4.82;3.10;;;;;;;3.80;82.25;97626.63;5023703;28;20053;-74
2023/03/29 07:39:19;;;;;;;4.10;3.00;;;;;;;3.83;81.93;97627.16;5018883;28;20050;-74
2023/03/29 07:42:06;;;;;;;4.40;3.65;;;;;;;3.94;82.38;97618.19;5023703;28;20064;-74
2023/03/29 07:44:36;;;;;;;6.03;4.28;;;;;;;3.97;81.74;97637.16;5030280;28;20045;-74
2023/03/29 07:47:04;;;;;;;6.10;3.38;;;;;;;4.03;82.02;97633.94;5012693;28;20128;-74
2023/03/29 07:49:32;;;;;;;6.75;4.05;;;;;;;4.07;80.95;97637.09;5008607;28;20163;-74
2023/03/29 07:52:00;;;;;;;6.38;4.47;;;;;;;4.15;81.04;97639.81;5012593;28;20046;-74
2023/03/29 07:54:31;;;;;;;5.43;3.97;;;;;;;4.22;81.40;97642.66;5005175;28;20097;-74
2023/03/29 07:57:18;;;;;;;8.32;5.03;;;;;;;4.28;80.63;97650.78;5010286;28;20046;-74
2023/03/29 07:59:53;;;;;;;8.57;4.00;;;;;;;4.38;80.11;97648.03;5008530;28;20049;-74
2023/03/29 08:02:27;;;;;;;7.78;4.53;;;;;;;4.49;80.28;97645.16;5003091;28;20050;-74
2023/03/29 08:05:00;;;;;;;3.03;2.47;;;;;;;4.57;79.17;97645.19;5004857;28;20046;-74
2023/03/29 08:07:48;;;;;;;6.93;4.80;;;;;;;4.64;79.19;97637.50;5005950;28;20053;-74
2023/03/29 08:10:38;;;;;;;4.65;2.25;;;;;;;4.71;78.75;97634.06;5007344;28;20050;-74
2023/03/29 08:13:12;;;;;;;2.90;2.22;;;;;;;4.79;78.54;97636.75;5005123;28;20071;-74
2023/03/29 08:16:08;;;;;;;6.35;3.80;;;;;;;4.80;78.21;97629.63;5008742;28;20429;-75
2023/03/29 08:18:42;;;;;;;7.85;5.45;;;;;;;4.98;79.02;97637.50;5010841;28;20057;-74
2023/03/29 08:21:11;;;;;;;5.03;3.35;;;;;;;5.00;77.90;97627.56;5010869;28;20054;-74
2023/03/29 08:23:39;;;;;;;6.53;4.05;;;;;;;5.02;77.65;97633.53;5011159;28;20048;-74
2023/03/29 08:26:17;;;;;;;8.80;4.38;;;;;;;5.02;77.63;97630.91;5010394;28;20521;-74
2023/03/29 08:28:46;;;;;;;5.93;3.25;;;;;;;5.02;78.46;97639.66;5011065;28;20042;-74
2023/03/29 08:31:18;;;;;;;4.25;2.45;;;;;;;5.03;77.90;97627.28;5010396;28;20128;-73
2023/03/29 08:33:45;;;;;;;5.78;2.80;;;;;;;5.04;77.94;97623.66;5005068;28;20141;-74
2023/03/29 08:36:34;;;;;;;6.07;3.40;;;;;;;5.13;78.16;97620.03;5009890;28;20142;-73
2023/03/29 08:39:09;;;;;;;3.47;2.20;;;;;;;5.24;78.07;97617.09;5027195;28;20160;-74
2023/03/29 08:41:51;;;;;;;8.70;4.45;;;;;;;5.26;77.63;97609.84;5010551;28;20049;-74
2023/03/29 08:44:38;;;;;;;6.82;3.20;;;;;;;5.32;77.19;97609.19;5014390;28;20140;-74
2023/03/29 08:47:19;;;;;;;4.10;3.20;;;;;;;5.38;76.79;97605.06;5014649;28;20087;-74
2023/03/29 08:49:49;;;;;;;6.63;4.20;;;;;;;5.56;77.22;97602.28;5015232;28;20358;-74
2023/03/29 08:52:21;;;;;;;7.65;3.95;;;;;;;5.61;76.24;97595.50;5015525;28;20045;-74
2023/03/29 08:54:50;;;;;;;5.30;2.83;;;;;;;5.73;75.84;97598.66;5014949;28;20041;-74
2023/03/29 08:57:30;;;;;;;9.07;4.40;;;;;;;5.76;75.65;97593.88;5016780;28;20065;-74
2023/03/29 09:00:05;;;;;;;4.22;2.60;;;;;;;5.87;75.65;97587.44;5017634;28;20073;-74
2023/03/29 09:02:40;;;;;;;3.78;3.13;;;;;;;5.93;76.15;97584.13;5017118;28;20097;-74
2023/03/29 09:05:19;;;;;;;3.28;2.28;;;;;;;6.01;75.07;97575.38;5015571;28;20057;-74
2023/03/29 09:08:16;;;;;;;3.55;1.95;;;;;;;6.13;75.04;97576.69;5015108;28;20096;-74
2023/03/29 09:10:47;;;;;;;6.97;4.25;;;;;;;6.24;75.00;97584.28;5015335;28;21490;-74
2023/03/29 09:13:29;;;;;;;5.55;3.05;;;;;;;6.23;74.51;97574.69;5014818;28;20041;-74
2023/03/29 09:16:04;;;;;;;5.60;3.10;;;;;;;6.50;74.70;97560.22;5015861;28;20333;-74
2023/03/29 09:18:46;;;;;;;5.10;3.80;;;;;;;6.59;72.73;97567.16;5008774;28;20046;-74
2023/03/29 09:21:21;;;;;;;4.85;2.72;;;;;;;6.68;71.87;97567.94;5013542;28;20587;-74
2023/03/29 09:24:07;;;;;;;3.40;2.20;;;;;;;6.81;71.45;97562.94;5009941;28;20141;-74
2023/03/29 09:26:47;;;;;;;3.50;1.60;;;;;;;6.85;71.36;97561.63;5012451;28;20042;-74
2023/03/29 09:29:40;;;;;;;6.05;3.47;;;;;;;7.02;71.46;97567.66;5031228;28;20045;-74
2023/03/29 09:32:16;;;;;;;5.53;2.92;;;;;;;7.13;70.77;97556.66;5003710;28;20456;-74
2023/03/29 09:34:49;;;;;;;6.57;3.10;;;;;;;7.27;70.46;97558.56;5008292;28;20042;-74
2023/03/29 09:37:23;;;;;;;3.67;2.78;;;;;;;7.37;69.39;97569.81;5013988;28;20460;-74
2023/03/29 09:39:52;;;;;;;4.28;2.25;;;;;;;7.30;69.89;97568.84;5015069;28;20596;-75
2023/03/29 09:42:24;;;;;;;3.38;2.63;;;;;;;7.31;69.75;97565.19;5014171;28;20100;-74
2023/03/29 09:44:54;;;;;;;3.78;2.08;;;;;;;7.46;69.65;97573.25;5014715;28;20045;-74
2023/03/29 09:47:34;;;;;;;4.35;2.80;;;;;;;7.57;69.27;97572.84;5014884;28;20414;-74
2023/03/29 09:50:10;;;;;;;7.93;4.53;;;;;;;7.65;69.30;97570.94;5016333;28;20042;-75
2023/03/29 09:52:54;;;;;;;6.20;3.55;;;;;;;7.44;69.15;97572.59;5013804;28;20050;-74
2023/03/29 09:55:26;;;;;;;2.47;2.13;;;;;;;7.40;69.66;97577.41;5013560;28;20046;-74
2023/03/29 09:58:16;;;;;;;3.53;3.03;;;;;;;7.37;70.06;97564.50;5014944;28;20049;-74
2023/03/29 10:00:49;;;;;;;4.85;3.00;;;;;;;7.41;70.23;97560.47;5014312;28;20576;-75
2023/03/29 10:03:18;;;;;;;4.78;2.35;;;;;;;7.59;69.98;97566.31;5014650;28;20061;-74
2023/03/29 10:05:55;;;;;;;3.08;2.20;;;;;;;7.59;69.03;97563.66;5011981;28;20052;-75
2023/03/29 10:08:26;;;;;;;6.20;3.00;;;;;;;7.67;69.53;97555.66;5012968;28;20042;-75
2023/03/29 10:10:57;;;;;;;2.47;2.03;;;;;;;7.87;68.99;97560.50;5010780;28;20105;-74
2023/03/29 10:13:28;;;;;;;3.10;2.70;;;;;;;7.90;67.79;97570.75;5014349;28;20038;-75
2023/03/29 10:16:02;;;;;;;4.50;4.07;;;;;;;7.99;68.38;97565.19;5013324;28;20037;-74
2023/03/29 10:18:30;;;;;;;4.03;2.60;;;;;;;8.03;67.29;97570.97;5006210;28;20038;-74
2023/03/29 10:21:02;;;;;;;3.95;2.33;;;;;;;8.13;66.82;97568.06;5013771;28;20117;-76
2023/03/29 10:23:33;;;;;;;4.43;3.20;;;;;;;7.95;67.17;97563.91;5005371;28;20038;-74
2023/03/29 10:26:03;;;;;;;5.13;3.08;;;;;;;7.93;66.77;97557.94;5013340;28;20045;-73
2023/03/29 10:28:32;;;;;;;4.07;3.03;;;;;;;8.02;67.11;97564.00;5015930;28;20486;-74
2023/03/29 10:31:02;;;;;;;7.90;3.15;;;;;;;8.10;66.56;97558.63;5012508;28;20072;-74
2023/03/29 10:33:32;;;;;;;5.45;3.20;;;;;;;8.25;66.37;97556.81;5012734;28;20045;-74
2023/03/29 10:36:04;;;;;;;4.07;2.90;;;;;;;8.22;64.91;97557.19;5015485;28;20050;-73
2023/03/29 10:38:35;;;;;;;2.63;1.80;;;;;;;8.22;65.38;97553.69;5020732;28;20050;-74
2023/03/29 10:41:05;;;;;;;5.68;2.50;;;;;;;8.37;65.81;97558.06;5012292;28;20460;-74
2023/03/29 10:43:37;;;;;;;3.72;2.50;;;;;;;8.37;65.39;97550.09;5012792;28;20061;-74
2023/03/29 10:46:07;;;;;;;3.33;1.60;;;;;;;8.44;65.75;97553.66;5011703;28;20071;-73
2023/03/29 10:48:36;;;;;;;3.80;2.20;;;;;;;8.50;65.13;97543.31;5013754;28;20046;-74
2023/03/29 10:51:06;;;;;;;2.95;2.40;;;;;;;8.54;64.68;97553.41;5012972;28;20050;-73
2023/03/29 10:53:35;;;;;;;5.53;2.97;;;;;;;8.75;64.36;97556.16;5011938;28;20108;-73
2023/03/29 10:56:15;;;;;;;2.60;1.83;;;;;;;8.86;63.46;97543.41;5012240;28;20501;-73
2023/03/29 10:58:59;;;;;;;4.93;2.72;;;;;;;8.98;63.35;97521.44;5011563;28;20382;-74
2023/03/29 11:01:31;;;;;;;2.85;2.63;;;;;;;9.14;62.47;97523.06;5012657;28;20052;-73
2023/03/29 11:04:10;;;;;;;3.30;2.42;;;;;;;9.19;62.50;97518.84;5012422;28;20073;-73
2023/03/29 11:06:44;;;;;;;3.35;2.53;;;;;;;9.24;62.52;97523.56;5005205;28;20490;-74
2023/03/29 11:09:17;;;;;;;3.20;1.70;;;;;;;9.20;62.33;97519.66;5011816;28;20148;-73
2023/03/29 11:12:04;;;;;;;4.60;2.55;;;;;;;9.41;63.19;97514.34;5011657;28;20037;-74
2023/03/29 11:14:51;;;;;;;2.17;1.63;;;;;;;9.41;62.38;97506.38;5005756;28;20136;-74
2023/03/29 11:17:27;;;;;;;3.22;2.40;;;;;;;9.45;62.77;97501.47;5012311;28;20042;-73
2023/03/29 11:20:11;;;;;;;5.53;3.97;;;;;;;9.42;63.11;97509.84;5012088;28;20457;-73
2023/03/29 11:22:46;;;;;;;5.35;3.13;;;;;;;9.56;62.43;97506.28;5005715;28;20081;-74
2023/03/29 11:25:29;;;;;;;4.30;2.33;;;;;;;9.46;61.27;97501.28;5010566;28;20050;-73
2023/03/29 11:28:01;;;;;;;4.68;2.13;;;;;;;9.57;60.51;97491.97;5012347;28;20042;-73
2023/03/29 11:30:32;;;;;;;3.50;1.95;;;;;;;9.46;60.85;97503.13;5004958;28;20450;-73
2023/03/29 11:33:09;;;;;;;3.42;2.45;;;;;;;9.49;61.20;97506.25;5011684;28;20037;-73
2023/03/29 11:35:42;;;;;;;8.63;2.70;;;;;;;9.85;60.56;97506.19;5004420;28;20397;-74
2023/03/29 11:38:21;;;;;;;3.38;2.63;;;;;;;10.01;59.89;97501.56;5011668;28;20521;-76
2023/03/29 11:41:00;;;;;;;6.40;3.00;;;;;;;10.09;60.02;97490.75;5011408;28;20046;-74
2023/03/29 11:43:32;;;;;;;7.88;3.40;;;;;;;10.16;60.09;97489.81;5007820;28;20046;-74
2023/03/29 11:46:02;;;;;;;5.30;2.85;;;;;;;9.83;59.92;97488.72;5011396;28;20128;-74
2023/03/29 11:48:33;;;;;;;2.38;2.08;;;;;;;9.90;60.04;97484.25;5006691;28;20048;-73
2023/03/29 11:51:05;;;;;;;3.10;1.92;;;;;;;10.08;60.24;97502.44;5013170;28;20046;-73
2023/03/29 11:53:38;;;;;;;3.22;1.65;;;;;;;10.14;59.84;97504.34;5010813;28;20572;-73
2023/03/29 11:56:09;;;;;;;4.95;2.25;;;;;;;10.15;60.58;97500.66;5011343;28;20057;-73
2023/03/29 11:58:40;;;;;;;4.30;2.45;;;;;;;10.11;59.89;97492.22;5011122;28;20052;-76
2023/03/29 12:01:11;;;;;;;3.03;2.35;;;;;;;10.13;60.46;97492.03;5010423;28;20524;-73
2023/03/29 12:03:42;;;;;;;7.97;4.10;;;;;;;10.06;60.08;97483.16;5012305;28;20046;-75
2023/03/29 12:06:17;;;;;;;5.57;3.35;;;;;;;10.09;60.95;97486.25;5010996;28;20042;-73
2023/03/29 12:08:50;;;;;;;5.10;2.65;;;;;;;10.15;60.91;97487.31;5011142;28;20100;-74
2023/03/29 12:11:22;;;;;;;4.63;3.20;;;;;;;10.21;61.19;97481.22;5011380;28;20046;-73